Time;durP1;ratioP1;P1;durP2;ratioP2;P2;SDS_P1;SDS_P2;PMS_P1;PMS_P2;Temp;Humidity;BMP_temperature;BMP_pressure;BME280_temperature;BME280_humidity;BME280_pressure;Samples;Min_cycle;Max_cycle;Signal;HPM_P1;HPM_P2
2023/04/29 00:00:53;;;;;;;17.08;9.60;;;9.60;99.90;;;;;;5036810;28;20037;-63
2023/04/29 00:03:18;;;;;;;19.33;10.50;;;9.60;99.90;;;;;;5055207;28;20551;-63
2023/04/29 00:05:44;;;;;;;17.08;10.50;;;9.60;99.90;;;;;;5055081;28;20192;-63
2023/04/29 00:08:10;;;;;;;22.42;10.65;;;9.60;99.90;;;;;;5054597;28;20049;-64
2023/04/29 00:10:36;;;;;;;19.67;10.48;;;9.60;99.90;;;;;;5054933;28;20037;-63
2023/04/29 00:13:02;;;;;;;22.80;11.65;;;9.60;99.90;;;;;;5054940;28;20047;-63
2023/04/29 00:15:27;;;;;;;20.90;10.52;;;9.50;99.90;;;;;;5054639;28;20040;-63
2023/04/29 00:17:53;;;;;;;21.17;9.93;;;9.50;99.90;;;;;;5054829;28;20032;-64
2023/04/29 00:20:19;;;;;;;18.55;9.98;;;9.50;99.90;;;;;;5054729;28;20117;-63
2023/04/29 00:22:44;;;;;;;16.75;9.10;;;9.50;99.90;;;;;;5054727;28;20037;-64
2023/04/29 00:25:11;;;;;;;19.52;9.43;;;9.50;99.90;;;;;;5054751;28;20515;-65
2023/04/29 00:27:38;;;;;;;21.20;9.40;;;9.50;99.90;;;;;;5054710;28;20029;-66
2023/04/29 00:30:05;;;;;;;18.50;9.10;;;9.50;99.90;;;;;;5054690;28;20048;-63
2023/04/29 00:32:31;;;;;;;22.17;9.68;;;9.50;99.90;;;;;;5054445;28;20044;-63
2023/04/29 00:34:56;;;;;;;22.50;9.57;;;9.50;99.90;;;;;;5053492;28;20036;-63
2023/04/29 00:37:22;;;;;;;18.15;9.90;;;9.50;99.90;;;;;;5054065;28;20049;-63
2023/04/29 00:39:48;;;;;;;16.55;9.07;;;9.50;99.90;;;;;;5054155;28;20043;-64
2023/04/29 00:42:13;;;;;;;19.10;9.40;;;10.10;99.90;;;;;;5054049;28;20036;-64
2023/04/29 00:44:39;;;;;;;19.75;9.27;;;9.50;99.90;;;;;;5054372;28;20033;-63
2023/04/29 00:47:04;;;;;;;16.15;8.85;;;9.40;99.90;;;;;;5054333;28;20069;-63
2023/04/29 00:49:30;;;;;;;18.00;9.45;;;9.40;99.90;;;;;;5054307;28;20037;-64
2023/04/29 00:51:58;;;;;;;14.20;9.20;;;9.40;99.90;;;;;;5053895;28;20091;-64
2023/04/29 00:54:24;;;;;;;24.88;9.15;;;9.40;99.90;;;;;;5054163;28;20043;-63
2023/04/29 00:56:50;;;;;;;18.73;8.52;;;9.40;99.90;;;;;;5036015;28;20047;-63
2023/04/29 00:59:16;;;;;;;14.95;7.93;;;9.40;99.90;;;;;;5054020;28;20041;-63
2023/04/29 01:01:43;;;;;;;18.63;8.40;;;9.40;99.90;;;;;;5053896;28;20060;-64
2023/04/29 01:04:09;;;;;;;14.45;8.50;;;9.40;99.90;;;;;;5053897;28;20480;-63
2023/04/29 01:06:48;;;;;;;18.05;8.65;;;9.40;99.90;;;;;;5053789;28;20029;-63
2023/04/29 01:09:32;;;;;;;15.40;7.80;;;9.40;99.90;;;;;;5053604;28;20049;-65
2023/04/29 01:12:23;;;;;;;16.90;8.43;;;9.40;99.90;;;;;;5053813;28;20161;-64
2023/04/29 01:15:03;;;;;;;12.98;8.18;;;9.40;99.90;;;;;;5053670;28;20440;-63
2023/04/29 01:17:35;;;;;;;17.42;8.40;;;9.30;99.90;;;;;;5053509;28;20049;-63
2023/04/29 01:20:02;;;;;;;16.60;8.88;;;9.30;99.90;;;;;;5019360;28;20511;-64
2023/04/29 01:22:28;;;;;;;14.52;7.68;;;9.30;99.90;;;;;;5053701;28;20131;-63
2023/04/29 01:24:54;;;;;;;16.58;8.25;;;9.30;99.90;;;;;;5053609;28;20063;-64
2023/04/29 01:27:44;;;;;;;14.43;8.20;;;9.30;99.90;;;;;;5035438;28;20037;-64
2023/04/29 01:30:26;;;;;;;12.32;7.80;;;9.30;99.90;;;;;;5035407;28;20047;-63
2023/04/29 01:33:11;;;;;;;15.35;7.65;;;9.30;99.90;;;;;;5051929;28;20037;-64
2023/04/29 01:36:06;;;;;;;15.25;7.75;;;9.30;99.90;;;;;;5053104;28;20045;-63
2023/04/29 01:38:46;;;;;;;14.25;7.57;;;9.30;99.90;;;;;;5035244;28;20048;-63
2023/04/29 01:41:17;;;;;;;19.13;8.20;;;9.30;99.90;;;;;;5053278;28;20373;-63
2023/04/29 01:43:48;;;;;;;14.90;7.03;;;9.30;99.90;;;;;;5053248;28;20116;-63
2023/04/29 01:46:18;;;;;;;14.07;7.28;;;9.30;99.90;;;;;;5034822;28;20041;-63
2023/04/29 01:48:44;;;;;;;12.85;7.45;;;9.30;99.90;;;;;;5053317;28;20032;-64
2023/04/29 01:51:10;;;;;;;10.15;6.80;;;9.30;99.90;;;;;;5052839;28;20048;-63
2023/04/29 01:53:36;;;;;;;12.65;7.50;;;9.30;99.90;;;;;;5052765;28;20052;-63
2023/04/29 01:56:01;;;;;;;16.20;8.27;;;9.30;99.90;;;;;;5053039;28;20125;-64
2023/04/29 01:58:27;;;;;;;15.63;7.90;;;9.30;99.90;;;;;;5053117;28;20146;-65
2023/04/29 02:00:53;;;;;;;13.20;7.10;;;9.20;99.90;;;;;;5052684;28;20119;-64
2023/04/29 02:03:19;;;;;;;11.95;7.47;;;9.20;99.90;;;;;;5034962;28;20044;-64
2023/04/29 02:05:45;;;;;;;15.90;7.38;;;9.20;99.90;;;;;;5053021;28;20506;-63
2023/04/29 02:08:11;;;;;;;15.05;7.63;;;9.20;99.90;;;;;;5052517;28;20127;-64
2023/04/29 02:10:37;;;;;;;13.80;6.40;;;9.20;99.90;;;;;;5052962;28;20079;-64
2023/04/29 02:13:03;;;;;;;16.35;7.05;;;9.20;99.90;;;;;;5052856;28;20108;-63
2023/04/29 02:15:28;;;;;;;13.77;6.18;;;9.20;99.90;;;;;;5018438;28;20041;-63
2023/04/29 02:17:54;;;;;;;17.35;6.43;;;9.90;99.90;;;;;;5034809;28;20045;-64
2023/04/29 02:20:20;;;;;;;10.77;6.28;;;9.40;99.90;;;;;;5052775;28;20043;-64
2023/04/29 02:22:46;;;;;;;14.43;6.18;;;9.20;99.90;;;;;;5034728;28;20036;-63
2023/04/29 02:25:11;;;;;;;15.27;6.07;;;9.10;99.90;;;;;;5034740;28;20049;-63
2023/04/29 02:27:37;;;;;;;11.40;6.03;;;9.20;99.90;;;;;;5034782;28;20041;-63
2023/04/29 02:30:03;;;;;;;17.33;6.20;;;9.10;99.90;;;;;;5052807;28;20106;-63
2023/04/29 02:32:30;;;;;;;13.60;6.72;;;9.10;99.90;;;;;;5052786;28;20036;-67
2023/04/29 02:34:55;;;;;;;15.73;6.63;;;9.20;99.90;;;;;;5052694;28;20448;-64
2023/04/29 02:37:21;;;;;;;11.98;6.32;;;9.10;99.90;;;;;;5034552;28;20065;-63
2023/04/29 02:39:47;;;;;;;9.80;5.63;;;9.10;99.90;;;;;;5052707;28;20440;-63
2023/04/29 02:42:13;;;;;;;11.77;6.15;;;9.10;99.90;;;;;;5034504;28;20037;-64
2023/04/29 02:44:39;;;;;;;13.05;6.43;;;9.10;99.90;;;;;;5052442;28;20489;-64
2023/04/29 02:47:04;;;;;;;12.32;5.82;;;9.10;99.90;;;;;;5052570;28;20099;-63
2023/04/29 02:49:30;;;;;;;15.27;6.60;;;9.10;99.90;;;;;;5034575;28;20390;-63
2023/04/29 02:51:57;;;;;;;13.57;5.82;;;9.10;99.90;;;;;;5052319;28;20051;-63
2023/04/29 02:54:23;;;;;;;13.65;6.82;;;9.10;99.90;;;;;;5052615;28;20090;-63
2023/04/29 02:56:48;;;;;;;12.73;6.90;;;10.20;99.90;;;;;;5052565;28;20040;-63
2023/04/29 02:59:14;;;;;;;14.07;6.57;;;9.00;99.90;;;;;;5053806;28;20507;-63
2023/04/29 03:01:40;;;;;;;15.18;7.13;;;9.10;99.90;;;;;;5056281;28;20029;-63
2023/04/29 03:04:05;;;;;;;13.15;6.57;;;9.00;99.90;;;;;;5038507;28;20194;-63
2023/04/29 03:06:31;;;;;;;19.38;6.70;;;9.00;99.90;;;;;;5056164;28;20037;-64
2023/04/29 03:08:57;;;;;;;12.48;6.47;;;9.00;99.90;;;;;;5056363;28;20049;-63
2023/04/29 03:11:25;;;;;;;12.57;6.10;;;9.20;99.90;;;;;;5038081;28;20040;-64
2023/04/29 03:13:51;;;;;;;10.57;5.63;;;8.90;99.90;;;;;;5037965;28;20403;-63
2023/04/29 03:16:16;;;;;;;12.98;6.50;;;8.90;99.90;;;;;;5037936;28;20128;-64
2023/04/29 03:18:45;;;;;;;14.77;6.30;;;8.90;99.90;;;;;;5037929;28;20059;-63
2023/04/29 03:21:11;;;;;;;12.52;6.20;;;9.10;99.90;;;;;;5055947;28;20400;-64
2023/04/29 03:23:39;;;;;;;11.77;6.60;;;8.80;99.90;;;;;;5055861;28;20048;-63
2023/04/29 03:26:04;;;;;;;11.60;6.72;;;8.80;99.90;;;;;;5056032;28;20037;-63
2023/04/29 03:28:30;;;;;;;19.77;7.03;;;8.90;99.90;;;;;;5055947;28;20548;-63
2023/04/29 03:30:56;;;;;;;17.20;6.53;;;9.00;99.90;;;;;;5055420;28;20047;-63
2023/04/29 03:33:21;;;;;;;13.65;6.22;;;8.80;99.90;;;;;;5055431;28;20049;-65
2023/04/29 03:35:47;;;;;;;11.82;6.30;;;8.80;99.90;;;;;;5037619;28;20068;-63
2023/04/29 03:38:13;;;;;;;16.63;7.38;;;8.70;99.90;;;;;;5037794;28;20374;-63
2023/04/29 03:40:39;;;;;;;8.48;5.30;;;8.70;99.90;;;;;;5055550;28;20036;-63
2023/04/29 03:43:05;;;;;;;11.88;6.40;;;9.00;99.90;;;;;;5037676;28;20066;-63
2023/04/29 03:45:31;;;;;;;14.18;6.65;;;8.80;99.90;;;;;;5037413;28;20111;-64
2023/04/29 03:47:57;;;;;;;13.32;5.80;;;9.10;99.90;;;;;;5055448;28;20174;-63
2023/04/29 03:50:23;;;;;;;14.27;6.05;;;9.60;99.90;;;;;;5037432;28;20506;-64
2023/04/29 03:52:48;;;;;;;12.35;6.35;;;8.70;99.90;;;;;;5055382;28;20048;-64
2023/04/29 03:55:14;;;;;;;12.88;6.07;;;8.70;99.90;;;;;;5055369;28;20069;-64
2023/04/29 03:57:40;;;;;;;10.70;5.65;;;8.70;99.90;;;;;;5037194;28;20029;-63
2023/04/29 04:00:06;;;;;;;13.82;5.18;;;8.70;99.90;;;;;;5054918;28;20538;-64
2023/04/29 04:02:32;;;;;;;11.82;5.93;;;8.70;99.90;;;;;;5054501;28;20083;-64
2023/04/29 04:04:58;;;;;;;13.93;6.00;;;8.70;99.90;;;;;;5055253;28;20505;-64
2023/04/29 04:07:23;;;;;;;14.07;5.70;;;8.70;99.90;;;;;;5025463;28;20562;-64
2023/04/29 04:09:49;;;;;;;10.20;5.68;;;8.60;99.90;;;;;;5053314;28;20497;-64
2023/04/29 04:12:14;;;;;;;12.00;5.65;;;8.70;99.90;;;;;;5053481;28;20536;-64
2023/04/29 04:14:41;;;;;;;13.98;6.45;;;8.70;99.90;;;;;;5053589;28;20064;-64
2023/04/29 04:17:06;;;;;;;11.70;5.03;;;8.80;99.90;;;;;;5054737;28;20047;-63
2023/04/29 04:19:32;;;;;;;15.55;5.55;;;9.70;99.90;;;;;;5070412;28;20411;-63
2023/04/29 04:21:58;;;;;;;9.70;5.15;;;8.70;99.90;;;;;;5053255;28;20045;-64
2023/04/29 04:24:23;;;;;;;11.32;5.20;;;8.70;99.90;;;;;;5054787;28;20052;-63
2023/04/29 04:26:49;;;;;;;12.57;4.97;;;8.70;99.90;;;;;;5054479;28;20044;-64
2023/04/29 04:29:15;;;;;;;14.35;5.95;;;8.70;99.90;;;;;;5054749;28;20033;-64
2023/04/29 04:31:41;;;;;;;10.70;4.75;;;9.30;99.90;;;;;;5054623;28;20041;-63
2023/04/29 04:34:06;;;;;;;10.93;4.07;;;8.80;99.90;;;;;;5054598;28;20105;-63
2023/04/29 04:36:32;;;;;;;11.20;4.60;;;8.80;99.90;;;;;;5053048;28;20048;-63
2023/04/29 04:38:58;;;;;;;8.55;4.63;;;8.70;99.90;;;;;;5054231;28;20045;-63
2023/04/29 04:41:23;;;;;;;10.13;4.70;;;8.80;99.90;;;;;;5052890;28;20163;-68
2023/04/29 04:43:49;;;;;;;7.35;4.00;;;9.90;99.90;;;;;;5054136;28;20485;-64
2023/04/29 04:46:16;;;;;;;9.98;4.68;;;8.80;99.90;;;;;;5054376;28;20030;-63
2023/04/29 04:48:42;;;;;;;5.30;3.75;;;8.80;99.90;;;;;;5054420;28;20120;-65
2023/04/29 04:51:12;;;;;;;8.00;4.32;;;8.80;99.90;;;;;;5052724;28;20534;-64
2023/04/29 04:53:38;;;;;;;9.77;4.15;;;8.80;99.90;;;;;;5053925;28;20489;-63
2023/04/29 04:56:05;;;;;;;15.13;5.05;;;8.80;99.90;;;;;;5052681;28;20044;-63
2023/04/29 04:58:31;;;;;;;8.35;4.20;;;8.80;99.90;;;;;;5053801;28;20048;-63
2023/04/29 05:00:58;;;;;;;7.93;3.95;;;8.80;99.90;;;;;;5052419;28;20244;-63
2023/04/29 05:03:24;;;;;;;7.43;4.18;;;8.80;99.90;;;;;;5052579;28;20041;-63
2023/04/29 05:05:57;;;;;;;8.98;4.63;;;8.80;99.90;;;;;;5054002;28;20365;-63
2023/04/29 05:08:23;;;;;;;13.70;4.68;;;8.80;99.90;;;;;;5053682;28;20393;-64
2023/04/29 05:10:48;;;;;;;11.18;4.40;;;8.90;99.90;;;;;;5036071;28;20083;-63
2023/04/29 05:13:14;;;;;;;10.30;4.40;;;8.80;99.90;;;;;;5035995;28;20047;-63
2023/04/29 05:15:40;;;;;;;12.88;4.47;;;8.80;99.90;;;;;;5053800;28;20115;-63
2023/04/29 05:18:06;;;;;;;8.10;4.60;;;8.90;99.90;;;;;;5053749;28;20033;-64
2023/04/29 05:20:32;;;;;;;9.40;4.47;;;8.90;99.90;;;;;;5053328;28;20044;-64
2023/04/29 05:22:58;;;;;;;9.52;4.70;;;8.90;99.90;;;;;;5035248;28;20083;-63
2023/04/29 05:25:23;;;;;;;9.85;4.53;;;8.90;99.90;;;;;;5053338;28;20048;-65
2023/04/29 05:27:49;;;;;;;10.68;4.28;;;8.90;99.90;;;;;;5053616;28;20083;-64
2023/04/29 05:30:15;;;;;;;10.13;4.35;;;8.90;99.90;;;;;;5053558;28;20480;-65
2023/04/29 05:32:40;;;;;;;9.95;4.85;;;8.90;99.90;;;;;;5035651;28;20056;-63
2023/04/29 05:35:06;;;;;;;10.48;4.97;;;8.90;99.90;;;;;;5053122;28;20043;-64
2023/04/29 05:37:32;;;;;;;12.90;4.85;;;8.90;99.90;;;;;;5053394;28;20047;-63
2023/04/29 05:39:58;;;;;;;9.23;4.40;;;8.90;99.90;;;;;;5053055;28;20037;-63
2023/04/29 05:42:23;;;;;;;11.38;4.78;;;8.90;99.90;;;;;;5053253;28;20116;-64
2023/04/29 05:44:50;;;;;;;9.40;5.13;;;8.90;99.90;;;;;;5053273;28;20431;-64
2023/04/29 05:47:15;;;;;;;10.52;4.32;;;9.00;99.90;;;;;;5035531;28;20374;-63
2023/04/29 05:49:41;;;;;;;7.22;4.68;;;9.00;99.90;;;;;;5035130;28;20036;-63
2023/04/29 05:52:07;;;;;;;10.68;4.78;;;9.00;99.90;;;;;;5035146;28;20080;-63
2023/04/29 05:54:33;;;;;;;9.15;4.43;;;9.00;99.90;;;;;;5052891;28;20072;-63
2023/04/29 05:57:03;;;;;;;8.50;4.70;;;9.00;99.90;;;;;;5052954;28;20037;-63
2023/04/29 05:59:32;;;;;;;11.07;4.63;;;9.00;99.90;;;;;;5035066;28;20041;-63
2023/04/29 06:01:58;;;;;;;8.95;4.30;;;9.00;99.90;;;;;;5053052;28;20045;-63
2023/04/29 06:04:25;;;;;;;10.45;4.30;;;9.40;99.90;;;;;;5035108;28;20033;-63
2023/04/29 06:06:52;;;;;;;7.15;4.53;;;9.10;99.90;;;;;;5052990;28;20053;-63
2023/04/29 06:09:19;;;;;;;9.20;4.07;;;9.10;99.90;;;;;;5035059;28;20084;-63
2023/04/29 06:11:45;;;;;;;11.13;4.32;;;9.10;99.90;;;;;;5052677;28;20375;-63
2023/04/29 06:14:11;;;;;;;7.28;4.43;;;9.10;99.90;;;;;;5018325;28;20086;-63
2023/04/29 06:16:38;;;;;;;8.25;3.72;;;9.20;99.90;;;;;;5052879;28;20045;-62
2023/04/29 06:19:03;;;;;;;8.25;3.80;;;9.20;99.90;;;;;;5051699;28;20519;-63
2023/04/29 06:21:30;;;;;;;7.57;3.10;;;9.30;99.90;;;;;;5052795;28;20041;-63
2023/04/29 06:23:56;;;;;;;8.70;4.20;;;9.30;99.90;;;;;;5018166;28;20047;-63
2023/04/29 06:26:21;;;;;;;9.38;4.13;;;9.30;99.90;;;;;;5052811;28;20477;-63
2023/04/29 06:28:47;;;;;;;9.57;4.03;;;9.40;99.90;;;;;;5052473;28;20080;-63
2023/04/29 06:31:13;;;;;;;7.60;4.38;;;9.50;99.90;;;;;;5034927;28;20052;-63
2023/04/29 06:33:38;;;;;;;6.88;3.63;;;9.50;99.90;;;;;;5054815;28;20041;-64
2023/04/29 06:36:04;;;;;;;6.05;3.60;;;9.60;99.90;;;;;;5056482;28;20033;-63
2023/04/29 06:38:30;;;;;;;9.27;3.63;;;9.70;99.90;;;;;;5038940;28;20033;-64
2023/04/29 06:40:59;;;;;;;5.40;3.28;;;9.80;99.90;;;;;;5056680;28;20411;-63
2023/04/29 06:43:26;;;;;;;7.22;3.60;;;9.80;99.90;;;;;;5056592;28;20041;-64
2023/04/29 06:45:52;;;;;;;6.97;3.70;;;9.90;99.90;;;;;;5056363;28;20043;-63
2023/04/29 06:48:18;;;;;;;8.50;3.97;;;10.00;99.90;;;;;;5038721;28;20477;-64
2023/04/29 06:50:49;;;;;;;9.75;4.05;;;10.10;99.90;;;;;;5056411;28;20098;-63
2023/04/29 06:53:15;;;;;;;6.60;3.65;;;10.20;99.90;;;;;;5056219;28;20044;-64
2023/04/29 06:55:40;;;;;;;6.18;3.28;;;10.30;99.90;;;;;;5038684;28;20037;-63
2023/04/29 06:58:06;;;;;;;9.05;3.83;;;10.70;99.90;;;;;;5056466;28;20120;-64
2023/04/29 07:00:32;;;;;;;8.10;4.03;;;10.40;99.90;;;;;;5038043;28;20496;-64
2023/04/29 07:02:58;;;;;;;5.63;3.20;;;10.40;99.90;;;;;;5056397;28;20485;-65
2023/04/29 07:05:24;;;;;;;7.53;3.42;;;10.50;99.90;;;;;;5056182;28;20090;-63
2023/04/29 07:07:49;;;;;;;7.43;3.95;;;10.60;99.90;;;;;;5056032;28;20052;-63
2023/04/29 07:10:15;;;;;;;12.60;3.97;;;10.80;99.90;;;;;;5038292;28;20056;-64
2023/04/29 07:12:40;;;;;;;4.30;2.90;;;11.30;99.90;;;;;;5055909;28;20127;-63
2023/04/29 07:15:07;;;;;;;8.25;3.40;;;11.00;99.90;;;;;;5056119;28;20041;-65
2023/04/29 07:17:32;;;;;;;7.97;3.70;;;11.10;99.90;;;;;;5055777;28;20040;-63
2023/04/29 07:19:58;;;;;;;8.35;4.03;;;11.20;99.90;;;;;;5055806;28;20041;-63
2023/04/29 07:22:24;;;;;;;5.72;3.30;;;11.20;99.90;;;;;;5055788;28;20116;-63
2023/04/29 07:24:53;;;;;;;7.78;3.72;;;11.30;99.90;;;;;;5037920;28;20044;-64
2023/04/29 07:27:19;;;;;;;9.75;3.40;;;11.70;99.90;;;;;;5055729;28;20147;-62
2023/04/29 07:29:44;;;;;;;5.35;2.97;;;11.40;99.90;;;;;;5037555;28;20069;-63
2023/04/29 07:32:10;;;;;;;6.88;3.35;;;11.40;99.90;;;;;;5055664;28;20068;-63
2023/04/29 07:34:36;;;;;;;6.35;3.53;;;12.50;99.90;;;;;;5055672;28;20098;-65
2023/04/29 07:37:02;;;;;;;6.80;3.70;;;11.60;99.90;;;;;;5037472;28;20049;-64
2023/04/29 07:39:29;;;;;;;11.38;3.35;;;11.70;99.90;;;;;;5055644;28;20443;-65
2023/04/29 07:41:54;;;;;;;5.95;2.88;;;11.80;99.90;;;;;;5055480;28;20455;-65
2023/04/29 07:44:21;;;;;;;6.22;3.13;;;11.80;99.90;;;;;;5054776;28;20112;-65
2023/04/29 07:46:46;;;;;;;9.40;3.53;;;11.90;99.90;;;;;;5037342;28;20443;-64
2023/04/29 07:49:12;;;;;;;6.50;3.28;;;12.00;99.90;;;;;;5055387;28;20082;-65
2023/04/29 07:51:41;;;;;;;7.18;3.55;;;12.10;99.90;;;;;;5055397;28;20124;-66
2023/04/29 07:54:07;;;;;;;10.40;3.72;;;12.20;99.90;;;;;;5055333;28;20045;-66
2023/04/29 07:56:32;;;;;;;6.00;3.15;;;12.10;99.90;;;;;;5055321;28;20413;-66
2023/04/29 07:59:00;;;;;;;4.53;2.88;;;12.90;99.90;;;;;;5054989;28;20045;-66
2023/04/29 08:01:26;;;;;;;6.28;3.70;;;12.10;99.90;;;;;;5055335;28;20068;-66
2023/04/29 08:03:51;;;;;;;5.55;3.17;;;12.20;99.90;;;;;;5054120;28;20045;-66
2023/04/29 08:06:19;;;;;;;7.25;2.97;;;12.30;99.90;;;;;;5055071;28;20041;-66
2023/04/29 08:08:45;;;;;;;5.30;2.65;;;13.60;99.90;;;;;;5053154;28;20595;-67
2023/04/29 08:11:18;;;;;;;5.18;3.28;;;12.50;99.90;;;;;;5055107;28;20052;-66
2023/04/29 08:13:45;;;;;;;7.53;3.50;;;12.60;99.90;;;;;;5053753;28;20063;-64
2023/04/29 08:16:12;;;;;;;6.80;3.05;;;12.60;99.90;;;;;;5054921;28;20131;-66
2023/04/29 08:18:38;;;;;;;6.95;3.53;;;12.70;99.90;;;;;;5053331;28;20052;-66
2023/04/29 08:21:03;;;;;;;4.78;2.63;;;13.00;99.90;;;;;;5054785;28;20400;-67
2023/04/29 08:23:29;;;;;;;4.75;2.97;;;12.80;99.90;;;;;;5054743;28;20041;-67
2023/04/29 08:25:54;;;;;;;5.60;2.70;;;12.70;58.20;;;;;;5054850;28;20436;-67
2023/04/29 08:28:24;;;;;;;9.65;3.28;;;12.90;58.30;;;;;;5054731;28;20048;-68
2023/04/29 08:30:49;;;;;;;5.07;2.80;;;13.00;57.60;;;;;;5054650;28;20059;-66
2023/04/29 08:33:15;;;;;;;8.30;3.13;;;13.00;9.40;;;;;;5054547;28;20033;-66
2023/04/29 08:35:41;;;;;;;8.00;3.35;;;13.10;33.20;;;;;;5054297;28;20043;-67
2023/04/29 08:38:08;;;;;;;5.57;2.80;;;13.20;28.90;;;;;;5054196;28;20043;-66
2023/04/29 08:40:41;;;;;;;6.50;2.75;;;13.30;20.50;;;;;;5054317;28;20033;-67
2023/04/29 08:43:08;;;;;;;6.95;2.97;;;13.40;4.60;;;;;;5054167;28;20106;-67
2023/04/29 08:45:35;;;;;;;7.05;2.85;;;13.40;1.00;;;;;;5054400;28;20041;-67
2023/04/29 08:48:02;;;;;;;9.45;3.60;;;13.70;16.60;;;;;;5054253;28;20045;-67
2023/04/29 08:50:30;;;;;;;4.85;3.15;;;13.60;1.00;;;;;;5054036;28;20033;-67
2023/04/29 08:52:56;;;;;;;7.70;3.45;;;13.40;11.40;;;;;;5052821;28;20091;-67
2023/04/29 08:55:22;;;;;;;6.80;3.10;;;13.50;6.00;;;;;;5069722;28;20443;-67
2023/04/29 08:57:49;;;;;;;4.40;2.80;;;13.30;11.20;;;;;;5053071;28;20492;-67
2023/04/29 09:00:15;;;;;;;6.32;3.40;;;13.50;1.00;;;;;;5053787;28;20032;-68
2023/04/29 09:02:48;;;;;;;5.75;3.10;;;13.50;3.40;;;;;;5053713;28;20041;-68
2023/04/29 09:05:14;;;;;;;4.10;2.40;;;13.70;1.00;;;;;;5053967;28;20056;-65
2023/04/29 09:07:40;;;;;;;6.32;3.33;;;13.20;1.00;;;;;;5053580;28;20131;-69
2023/04/29 09:10:07;;;;;;;6.60;2.75;;;13.40;4.70;;;;;;5035771;28;20041;-67
2023/04/29 09:12:33;;;;;;;6.03;3.17;;;13.40;1.00;;;;;;5054005;28;20084;-68
2023/04/29 09:14:59;;;;;;;6.30;2.95;;;13.70;11.10;;;;;;5053955;28;20041;-68
2023/04/29 09:17:43;;;;;;;7.70;3.42;;;13.70;1.00;;;;;;5090413;28;20473;-64
2023/04/29 09:20:21;;;;;;;6.78;3.92;;;13.90;1.00;;;;;;5089006;28;20048;-65
2023/04/29 09:22:47;;;;;;;6.07;3.08;;;14.00;1.00;;;;;;5090276;28;20044;-64
2023/04/29 09:25:13;;;;;;;4.60;3.08;;;13.90;1.00;;;;;;5090420;28;20036;-65
2023/04/29 09:27:39;;;;;;;4.32;2.78;;;14.40;1.00;;;;;;5089111;28;20040;-65
2023/04/29 09:30:05;;;;;;;8.45;3.58;;;13.60;1.00;;;;;;5090256;28;20090;-65
2023/04/29 09:32:30;;;;;;;5.80;3.28;;;13.60;1.00;;;;;;5090161;28;20043;-65
2023/04/29 09:34:56;;;;;;;7.60;3.22;;;13.80;1.00;;;;;;5090246;28;20115;-65
2023/04/29 09:37:26;;;;;;;6.82;2.97;;;14.10;1.00;;;;;;5089779;28;20043;-65
2023/04/29 09:39:53;;;;;;;8.02;3.05;;;14.10;1.00;;;;;;5090054;28;20036;-65
2023/04/29 09:42:19;;;;;;;6.47;3.63;;;14.50;1.00;;;;;;5088448;28;20051;-65
2023/04/29 09:44:44;;;;;;;5.22;3.03;;;13.90;1.00;;;;;;5090044;28;20044;-64
2023/04/29 09:47:10;;;;;;;5.63;2.90;;;14.10;1.00;;;;;;5089734;28;20401;-65
2023/04/29 09:49:48;;;;;;;6.28;2.55;;;13.90;99.90;;;;;;5089890;28;20544;-65
2023/04/29 09:52:15;;;;;;;5.53;2.78;;;14.00;1.00;;;;;;5088381;28;20094;-64
2023/04/29 09:54:42;;;;;;;5.68;3.42;;;14.00;99.90;;;;;;5089919;28;20586;-65
2023/04/29 09:57:10;;;;;;;4.57;2.53;;;14.10;1.00;;;;;;5089720;28;20066;-65
2023/04/29 09:59:38;;;;;;;6.97;2.92;;;14.00;99.90;;;;;;5089667;28;20041;-65
2023/04/29 10:02:16;;;;;;;8.45;3.42;;;14.50;1.00;;;;;;5089468;28;20079;-65
2023/04/29 10:04:45;;;;;;;7.13;3.47;;;14.60;1.00;;;;;;5089439;28;20102;-64
2023/04/29 10:07:18;;;;;;;7.10;3.05;;;14.80;99.90;;;;;;5089533;28;20416;-66
2023/04/29 10:09:46;;;;;;;6.10;3.17;;;14.90;99.90;;;;;;5088116;28;20093;-66
2023/04/29 10:12:16;;;;;;;5.78;3.20;;;15.40;99.90;;;;;;5088004;28;20049;-66
2023/04/29 10:15:01;;;;;;;8.60;2.87;;;14.80;99.90;;;;;;5089232;28;20048;-67
2023/04/29 10:17:42;;;;;;;7.13;2.45;;;14.90;99.90;;;;;;5087606;28;20052;-65
2023/04/29 10:20:08;;;;;;;;;;;14.60;99.90;;;;;;5089802;28;20043;-65
2023/04/29 10:22:46;;;;;;;4.03;2.33;;;14.40;1.00;;;;;;5089458;28;19920;-65
2023/04/29 10:25:17;;;;;;;5.15;3.33;;;14.50;99.90;;;;;;5088956;28;20176;-65
2023/04/29 10:27:43;;;;;;;5.30;3.00;;;14.50;99.90;;;;;;5080802;28;20041;-69
2023/04/29 10:30:18;;;;;;;7.13;3.10;;;14.40;99.90;;;;;;5074113;28;20040;-65
2023/04/29 10:32:45;;;;;;;8.35;2.30;;;14.50;99.90;;;;;;5075716;28;20121;-67
2023/04/29 10:35:13;;;;;;;5.15;2.97;;;14.60;11.40;;;;;;5075547;28;20500;-64
2023/04/29 10:37:44;;;;;;;6.90;2.20;;;15.00;1.00;;;;;;5075684;28;20048;-64
2023/04/29 10:40:15;;;;;;;4.97;2.97;;;14.60;99.90;;;;;;5075587;28;20472;-64
2023/04/29 10:42:41;;;;;;;;;;;14.60;1.00;;;;;;5075737;28;20041;-65
2023/04/29 10:45:33;;;;;;;3.63;2.40;;;14.60;99.90;;;;;;5075504;28;19978;-65
2023/04/29 10:48:07;;;;;;;5.30;2.63;;;14.60;99.90;;;;;;5075422;28;20043;-65
2023/04/29 10:50:34;;;;;;;3.97;2.40;;;14.80;99.90;;;;;;5073889;28;20408;-64
2023/04/29 10:53:04;;;;;;;6.50;2.20;;;14.60;99.90;;;;;;5075286;28;20035;-65
2023/04/29 10:55:34;;;;;;;5.28;2.20;;;14.50;1.00;;;;;;5075303;28;20044;-65
2023/04/29 10:58:01;;;;;;;4.20;2.47;;;14.50;99.90;;;;;;5073703;28;20068;-65
2023/04/29 11:00:29;;;;;;;3.17;1.98;;;14.50;1.00;;;;;;5075034;28;20130;-65
2023/04/29 11:02:59;;;;;;;4.97;2.75;;;14.50;99.90;;;;;;5075063;28;20036;-64
2023/04/29 11:05:35;;;;;;;6.05;1.90;;;14.50;99.90;;;;;;5074899;28;20051;-65
2023/04/29 11:08:23;;;;;;;3.92;2.15;;;14.50;1.00;;;;;;5074973;28;20035;-65
2023/04/29 11:11:00;;;;;;;3.70;1.92;;;14.50;99.90;;;;;;5075026;28;20039;-65
2023/04/29 11:13:28;;;;;;;4.55;2.30;;;14.60;1.00;;;;;;5074857;28;20033;-65
2023/04/29 11:16:10;;;;;;;3.80;2.33;;;14.60;99.90;;;;;;5074387;28;20048;-65
2023/04/29 11:19:06;;;;;;;3.67;2.38;;;14.60;99.90;;;;;;5074881;28;20182;-65
2023/04/29 11:21:36;;;;;;;5.28;2.10;;;14.60;1.00;;;;;;5073680;28;20120;-65
2023/04/29 11:24:04;;;;;;;4.78;2.55;;;14.60;1.00;;;;;;5074772;28;20066;-65
2023/04/29 11:26:31;;;;;;;3.47;1.83;;;14.60;1.00;;;;;;5074701;28;20041;-65
2023/04/29 11:28:59;;;;;;;2.55;1.73;;;14.70;1.00;;;;;;5074612;28;20048;-65
2023/04/29 11:31:29;;;;;;;5.85;2.28;;;14.70;99.90;;;;;;5074305;28;20045;-66
2023/04/29 11:33:55;;;;;;;2.75;1.60;;;14.70;99.90;;;;;;5074292;28;20119;-66
2023/04/29 11:36:20;;;;;;;6.80;1.95;;;14.70;99.90;;;;;;5074106;28;20177;-66
2023/04/29 11:38:46;;;;;;;4.10;2.20;;;14.60;1.00;;;;;;5073775;28;20082;-66
2023/04/29 11:41:12;;;;;;;3.35;1.88;;;14.60;1.00;;;;;;5074149;28;20037;-66
2023/04/29 11:43:40;;;;;;;4.22;2.13;;;14.60;99.90;;;;;;5073209;28;20036;-67
2023/04/29 11:46:13;;;;;;;4.55;1.90;;;14.60;99.90;;;;;;5074344;28;20040;-66
2023/04/29 11:48:48;;;;;;;4.32;2.05;;;14.70;99.90;;;;;;5074186;28;20047;-64
2023/04/29 11:51:16;;;;;;;3.08;2.03;;;14.70;1.00;;;;;;5074160;28;20094;-65
2023/04/29 11:53:42;;;;;;;4.30;2.17;;;14.70;99.90;;;;;;5074161;28;20075;-65
2023/04/29 11:56:09;;;;;;;3.70;1.77;;;14.80;1.00;;;;;;5073897;28;20036;-66
2023/04/29 11:58:35;;;;;;;4.57;2.35;;;14.60;99.90;;;;;;5074059;28;20040;-69
2023/04/29 12:01:03;;;;;;;3.47;2.10;;;15.50;99.90;;;;;;5073666;28;20041;-70
2023/04/29 12:03:31;;;;;;;4.38;1.80;;;14.90;99.90;;;;;;5073835;28;20051;-65
2023/04/29 12:05:56;;;;;;;3.70;1.77;;;14.90;79.70;;;;;;5073834;28;20040;-64
2023/04/29 12:08:27;;;;;;;6.05;1.70;;;15.50;1.00;;;;;;5073508;28;20093;-66
2023/04/29 12:10:55;;;;;;;3.78;1.30;;;15.60;99.90;;;;;;5073710;28;20048;-65
2023/04/29 12:13:23;;;;;;;5.07;1.38;;;14.90;99.90;;;;;;5073817;28;20167;-65
2023/04/29 12:15:50;;;;;;;2.80;1.08;;;14.90;99.90;;;;;;5073496;28;20056;-65
2023/04/29 12:18:17;;;;;;;3.88;1.60;;;15.70;99.90;;;;;;5073677;28;20044;-65
2023/04/29 12:20:44;;;;;;;2.30;1.20;;;14.80;99.90;;;;;;5073388;28;20041;-65
2023/04/29 12:23:12;;;;;;;3.72;1.50;;;14.90;1.00;;;;;;5073547;28;20129;-65
2023/04/29 12:25:38;;;;;;;2.85;1.23;;;14.90;1.00;;;;;;5073541;28;20052;-65
2023/04/29 12:28:03;;;;;;;3.80;1.23;;;15.00;99.90;;;;;;5073832;28;20139;-65
2023/04/29 12:30:29;;;;;;;2.28;1.15;;;15.00;99.90;;;;;;5073072;28;20052;-67
2023/04/29 12:32:55;;;;;;;2.72;1.48;;;14.90;99.90;;;;;;5071925;28;20120;-65
2023/04/29 12:35:20;;;;;;;2.60;1.40;;;14.80;99.90;;;;;;5073309;28;20083;-65
2023/04/29 12:37:50;;;;;;;3.97;1.20;;;15.00;99.90;;;;;;5073463;28;20502;-65
2023/04/29 12:40:16;;;;;;;2.92;1.33;;;14.90;99.90;;;;;;5073588;28;20036;-65
2023/04/29 12:42:43;;;;;;;2.30;1.38;;;15.00;99.90;;;;;;5073368;28;20041;-65
2023/04/29 12:45:25;;;;;;;3.95;1.50;;;15.00;1.00;;;;;;5073197;28;20041;-65
2023/04/29 12:47:51;;;;;;;2.60;1.20;;;15.00;1.00;;;;;;5071726;28;20408;-65
2023/04/29 12:50:17;;;;;;;3.20;1.17;;;14.90;99.90;;;;;;5073006;28;20041;-65
2023/04/29 12:52:42;;;;;;;4.07;1.67;;;14.90;99.90;;;;;;5072862;28;20040;-65